Terminal Aerodrome Forecast
Issued by NWS

Home | Current Version | Previous Version | Text Only | Print | Product List | Glossary On
Versions: 1 2 3 4 5 6 7 8 9 10 11 12 13
000
FTAK31 PANC 221738
TAFAVD
TAF
PAVD 221738Z 2218/2318 VRB03KT 5SM -SN OVC027
      TEMPO 2218/2222 2SM -SN BKN015
     FM230000 VRB03KT P6SM VCSH SCT025 BKN070
      AMD LTD TO CLD VIS AND WIND=

USA.gov is the U.S. government's official web portal to all federal, state and local government web resources and services.